Boeing 737 Travel Service po přistání přejel dráhu v Pardubicích

25.08.2013

Smůla a po dnešku i bahno se lepí na podvozek Boeingu 737-800 registrace OK-TVG v barvách českého přepravce Travel Service. Přesně týden poté, co byl tentýž stroj kvůli poruše motoru přinucen k bezpečnostnímu přistání v Sofii na cestě do Turecka, dnes při přistání přejel dráhu 27 v Pardubicích. Hlavní příčinou byla pravděpodobně mokrá a kluzká ranvej.

Letoun na lince z bulharského Burgasu dosedl na pardubické letiště asi deset minut před pátou hodinou odpolední místního času. Nad celým krajem v tu dobu panoval vytrvalý déšť, který na ploše letiště utvořil několika milimetrovou vrstvu. Stroj se 191 lidmi na palubě přejel práh dráhy a zabrzdil asi 150 metrů za ním na nezpevněné ploše. Nikomu z lidí na palubě se při incidentu nic nestalo a také boeing zůstal nepoškozen.

METARy z letiště znázorňují, že svou roli mohl sehrát i vítr, který byť slabě, měl tendenci vát letounu do zad.

METARy letiště v Pardubicích kolem času nehody
LKPD 251400Z 09007KT 9999 -RA FEW040 OVC060 15/14 Q1013 NOSIG RMK* BLU BLU=
LKPD 251500Z 08003KT 040V110 9999 -RA FEW040 OVC060 15/14 Q1013 NOSIG RMK* BLU BLU=
* METARy vojenských letišť bývají v poznámce doplněny tzv. barevným kódem, který snadno určí podmínky dohlednosti a základny oblačnosti na letišti. Více si můžete přečíst na stránkách ČHMÚ: http://pocasi.chmi.cz/meteo/olm/Let_met/_tmp/bar_kody.htm

Mohlo by vás zajímat


Zkušenosti a doplnění našich čtenářů

Přidat komentář